createdAt,value
2023-05-19T00:00:37.423Z,5.53
2023-05-19T00:03:10.184Z,4.00
2023-05-19T00:05:46.331Z,4.35
2023-05-19T00:08:18.661Z,4.45
2023-05-19T00:10:48.252Z,4.22
2023-05-19T00:13:19.731Z,4.43
2023-05-19T00:15:48.990Z,4.20
2023-05-19T00:18:18.139Z,3.97
2023-05-19T00:20:46.926Z,4.90
2023-05-19T00:23:17.192Z,4.13
2023-05-19T00:25:46.017Z,4.03
2023-05-19T00:28:14.876Z,4.38
2023-05-19T00:30:43.740Z,4.40
2023-05-19T00:33:12.656Z,4.47
2023-05-19T00:35:41.706Z,4.57
2023-05-19T00:38:10.464Z,5.72
2023-05-19T00:40:41.064Z,5.43
2023-05-19T00:43:10.742Z,3.83
2023-05-19T00:45:39.683Z,4.35
2023-05-19T00:48:10.587Z,4.90
2023-05-19T00:50:39.673Z,3.25
2023-05-19T00:53:09.107Z,4.70
2023-05-19T00:55:41.567Z,3.72
2023-05-19T00:58:12.847Z,3.78
2023-05-19T01:00:44.417Z,4.68
2023-05-19T01:03:13.583Z,4.32
2023-05-19T01:05:45.062Z,4.20
2023-05-19T01:08:13.799Z,4.15
2023-05-19T01:10:44.315Z,4.63
2023-05-19T01:13:13.622Z,4.43
2023-05-19T01:15:58.978Z,4.97
2023-05-19T01:18:35.946Z,4.13
2023-05-19T01:21:27.646Z,5.38
2023-05-19T01:24:13.470Z,4.72
2023-05-19T01:27:05.824Z,4.90
2023-05-19T01:29:43.748Z,5.03
2023-05-19T01:32:17.266Z,4.40
2023-05-19T01:34:47.561Z,4.38
2023-05-19T01:37:18.732Z,5.28
2023-05-19T01:39:49.778Z,4.80
2023-05-19T01:42:19.172Z,3.80
2023-05-19T01:44:48.680Z,4.30
2023-05-19T01:47:19.642Z,5.20
2023-05-19T01:49:48.469Z,4.05
2023-05-19T01:52:17.299Z,5.55
2023-05-19T01:54:46.206Z,5.32
2023-05-19T01:57:22.525Z,4.53
2023-05-19T02:00:07.840Z,4.75
2023-05-19T02:02:57.930Z,4.82
2023-05-19T02:05:36.044Z,4.20
2023-05-19T02:08:25.515Z,4.85
2023-05-19T02:11:04.915Z,4.90
2023-05-19T02:13:38.547Z,5.50
2023-05-19T02:21:02.580Z,4.60
2023-05-19T02:23:31.507Z,4.25
2023-05-19T02:26:00.458Z,4.70
2023-05-19T02:28:32.789Z,6.18
2023-05-19T02:31:05.287Z,4.00
2023-05-19T02:33:36.466Z,4.70
2023-05-19T02:36:07.565Z,3.90
2023-05-19T02:38:36.401Z,5.00
2023-05-19T02:41:05.161Z,5.13
2023-05-19T02:43:34.050Z,6.13
2023-05-19T02:46:02.902Z,5.03
2023-05-19T02:48:31.915Z,5.05
2023-05-19T02:51:00.714Z,5.07
2023-05-19T02:53:31.792Z,6.05
2023-05-19T02:56:02.623Z,5.60
2023-05-19T02:58:33.878Z,4.75
2023-05-19T03:01:02.725Z,5.13
2023-05-19T03:03:31.860Z,4.53
2023-05-19T03:06:02.018Z,5.18
2023-05-19T03:08:32.141Z,5.28
2023-05-19T03:11:01.233Z,4.82
2023-05-19T03:13:32.101Z,5.75
2023-05-19T03:16:03.602Z,5.10
2023-05-19T03:18:32.445Z,7.28
2023-05-19T03:21:01.459Z,5.20
2023-05-19T03:23:34.122Z,5.20
2023-05-19T03:26:03.168Z,5.60
2023-05-19T03:28:32.350Z,5.28
2023-05-19T03:31:01.218Z,5.90
2023-05-19T03:33:35.752Z,5.28
2023-05-19T03:36:05.367Z,5.60
2023-05-19T03:38:39.565Z,5.57
2023-05-19T03:41:08.482Z,5.45
2023-05-19T03:43:37.344Z,5.70
2023-05-19T03:46:08.293Z,5.65
2023-05-19T03:48:49.287Z,4.82
2023-05-19T03:51:20.785Z,5.50
2023-05-19T03:53:53.745Z,6.22
2023-05-19T03:56:27.852Z,6.07
2023-05-19T03:58:56.836Z,6.47
2023-05-19T04:01:25.851Z,5.50
2023-05-19T04:03:54.854Z,6.22
2023-05-19T04:06:25.473Z,5.40
2023-05-19T04:08:58.066Z,6.07
2023-05-19T04:11:27.189Z,6.28
2023-05-19T04:13:56.170Z,5.95
2023-05-19T04:16:25.310Z,7.03
2023-05-19T04:18:54.311Z,6.22
2023-05-19T04:21:25.937Z,5.63
2023-05-19T04:24:00.032Z,6.97
2023-05-19T04:26:31.229Z,7.53
2023-05-19T04:29:04.516Z,7.00
2023-05-19T04:31:34.493Z,6.85
2023-05-19T04:34:05.215Z,7.72
2023-05-19T04:36:34.170Z,6.85
2023-05-19T04:39:07.977Z,7.10
2023-05-19T04:41:40.308Z,8.30
2023-05-19T04:44:13.580Z,9.20
2023-05-19T04:46:45.333Z,7.70
2023-05-19T04:49:14.741Z,6.68
2023-05-19T04:51:46.098Z,8.10
2023-05-19T04:54:16.307Z,7.40
2023-05-19T04:56:46.305Z,6.55
2023-05-19T04:59:15.388Z,7.00
2023-05-19T05:01:46.550Z,5.93
2023-05-19T05:04:17.405Z,7.25
2023-05-19T05:06:48.036Z,6.43
2023-05-19T05:09:20.037Z,6.20
2023-05-19T05:11:49.347Z,6.18
2023-05-19T05:14:18.746Z,5.63
2023-05-19T05:16:49.706Z,6.25
2023-05-19T05:19:24.190Z,6.03
2023-05-19T05:21:54.027Z,6.20
2023-05-19T05:24:24.986Z,6.50
2023-05-19T05:26:59.063Z,6.68
2023-05-19T05:29:28.217Z,7.22
2023-05-19T05:31:57.902Z,7.38
2023-05-19T05:34:27.208Z,7.55
2023-05-19T05:36:56.397Z,6.00
2023-05-19T05:39:29.236Z,5.90
2023-05-19T05:42:01.426Z,5.85
2023-05-19T05:44:30.559Z,5.80
2023-05-19T05:47:02.830Z,5.28
2023-05-19T05:49:32.171Z,5.43
2023-05-19T05:52:06.104Z,5.70
2023-05-19T05:54:44.087Z,7.00
2023-05-19T05:57:17.051Z,6.45
2023-05-19T05:59:48.813Z,6.85
2023-05-19T06:02:19.993Z,5.88
2023-05-19T06:04:49.121Z,6.15
2023-05-19T06:07:17.995Z,5.72
2023-05-19T06:09:48.585Z,6.53
2023-05-19T06:12:18.094Z,7.13
2023-05-19T06:14:50.217Z,5.18
2023-05-19T06:17:39.039Z,6.25
2023-05-19T06:20:10.241Z,6.05
2023-05-19T06:22:41.690Z,5.90
2023-05-19T06:25:13.934Z,6.55
2023-05-19T06:27:43.268Z,5.90
2023-05-19T06:30:12.822Z,6.25
2023-05-19T06:32:57.612Z,5.93
2023-05-19T06:35:29.937Z,7.13
2023-05-19T06:38:01.106Z,5.32
2023-05-19T06:40:31.645Z,6.45
2023-05-19T06:43:02.952Z,6.57
2023-05-19T06:45:57.229Z,5.75
2023-05-19T06:48:27.742Z,5.65
2023-05-19T06:50:57.198Z,5.20
2023-05-19T06:53:26.922Z,5.43
2023-05-19T06:56:00.150Z,6.70
2023-05-19T06:58:33.780Z,5.40
2023-05-19T07:01:07.780Z,5.82
2023-05-19T07:03:43.988Z,5.22
2023-05-19T07:06:14.253Z,6.07
2023-05-19T07:08:43.572Z,6.47
2023-05-19T07:11:18.399Z,6.88
2023-05-19T07:13:47.261Z,4.70
2023-05-19T07:16:21.909Z,5.80
2023-05-19T07:18:53.082Z,6.03
2023-05-19T07:21:22.388Z,4.75
2023-05-19T07:23:52.564Z,4.82
2023-05-19T07:26:25.251Z,5.57
2023-05-19T07:28:54.438Z,6.07
2023-05-19T07:31:23.384Z,5.57
2023-05-19T07:33:54.528Z,5.30
2023-05-19T07:36:23.800Z,5.40
2023-05-19T07:38:52.754Z,5.70
2023-05-19T07:41:21.632Z,4.53
2023-05-19T07:43:51.821Z,6.43
2023-05-19T07:46:22.205Z,6.07
2023-05-19T07:48:51.157Z,6.78
2023-05-19T07:51:19.995Z,4.88
2023-05-19T07:53:48.892Z,5.22
2023-05-19T07:56:17.826Z,4.80
2023-05-19T07:58:46.907Z,4.22
2023-05-19T08:01:17.145Z,5.20
2023-05-19T08:03:48.340Z,4.57
2023-05-19T08:06:17.309Z,3.88
2023-05-19T08:08:46.491Z,4.40
2023-05-19T08:11:15.445Z,4.07
2023-05-19T08:13:45.344Z,5.53
2023-05-19T08:16:14.288Z,3.20
2023-05-19T08:18:44.759Z,3.60
2023-05-19T08:21:13.675Z,4.40
2023-05-19T08:23:42.532Z,3.75
2023-05-19T08:26:11.364Z,3.80
2023-05-19T08:28:40.223Z,3.67
2023-05-19T08:31:09.306Z,3.47
2023-05-19T08:33:38.330Z,3.42
2023-05-19T08:36:13.195Z,3.22
2023-05-19T08:38:42.068Z,2.67
2023-05-19T08:41:11.324Z,3.58
2023-05-19T08:43:42.410Z,2.90
2023-05-19T08:46:17.009Z,4.05
2023-05-19T08:48:47.357Z,3.28
2023-05-19T08:51:25.769Z,3.67
2023-05-19T08:54:00.535Z,2.60
2023-05-19T08:56:29.501Z,2.50
2023-05-19T08:59:00.505Z,2.47
2023-05-19T09:01:32.599Z,2.00
2023-05-19T09:04:04.616Z,2.70
2023-05-19T09:06:35.216Z,2.40
2023-05-19T09:09:05.325Z,1.90
2023-05-19T09:11:35.808Z,2.95
2023-05-19T09:14:04.768Z,3.28
2023-05-19T09:16:36.381Z,3.08
2023-05-19T09:19:08.853Z,2.75
2023-05-19T09:21:39.289Z,3.25
2023-05-19T09:24:11.386Z,2.50
2023-05-19T09:26:42.028Z,2.55
2023-05-19T09:29:15.041Z,2.88
2023-05-19T09:31:51.862Z,2.70
2023-05-19T09:34:21.588Z,2.88
2023-05-19T09:36:53.491Z,3.05
2023-05-19T09:39:24.099Z,3.28
2023-05-19T09:41:54.567Z,2.42
2023-05-19T09:44:24.334Z,3.22
2023-05-19T09:46:54.636Z,3.35
2023-05-19T09:49:24.894Z,3.38
2023-05-19T09:51:57.069Z,4.22
2023-05-19T09:54:27.596Z,2.85
2023-05-19T09:57:02.250Z,3.28
2023-05-19T09:59:33.517Z,10.20
2023-05-19T10:02:03.455Z,7.13
2023-05-19T10:04:33.104Z,3.50
2023-05-19T10:07:06.051Z,1.67
2023-05-19T10:12:05.184Z,2.42
2023-05-19T10:14:34.060Z,2.13
2023-05-19T10:17:03.034Z,2.25
2023-05-19T10:19:32.034Z,2.75
2023-05-19T10:22:01.084Z,2.15
2023-05-19T10:24:31.345Z,3.67
2023-05-19T10:27:04.736Z,3.20
2023-05-19T10:29:37.321Z,2.13
2023-05-19T10:35:22.122Z,2.67
2023-05-19T10:37:58.893Z,3.75
2023-05-19T10:40:31.387Z,3.22
2023-05-19T10:43:15.179Z,2.95
2023-05-19T10:45:49.161Z,2.67
2023-05-19T10:48:18.546Z,3.40
2023-05-19T10:50:48.012Z,2.20
2023-05-19T10:53:18.537Z,3.13
2023-05-19T10:55:56.749Z,3.03
2023-05-19T10:58:39.360Z,3.92
2023-05-19T11:01:14.355Z,3.60
2023-05-19T11:03:47.234Z,3.03
2023-05-19T11:06:22.536Z,2.38
2023-05-19T11:08:55.045Z,2.33
2023-05-19T11:11:26.394Z,3.58
2023-05-19T11:13:56.549Z,2.38
2023-05-19T11:16:29.987Z,3.05
2023-05-19T11:19:01.688Z,3.40
2023-05-19T11:21:44.212Z,3.72
2023-05-19T11:24:36.996Z,3.28
2023-05-19T11:27:31.172Z,3.20
2023-05-19T11:30:02.049Z,3.15
2023-05-19T11:32:33.720Z,3.47
2023-05-19T11:35:06.616Z,3.30
2023-05-19T11:37:36.159Z,3.20
2023-05-19T11:40:07.041Z,3.47
2023-05-19T11:42:38.058Z,4.05
2023-05-19T11:45:08.360Z,4.25
2023-05-19T11:47:50.958Z,4.55
2023-05-19T11:50:26.680Z,3.35
2023-05-19T11:52:56.378Z,3.05
2023-05-19T11:55:26.050Z,3.80
2023-05-19T11:58:05.536Z,3.13
2023-05-19T12:00:39.233Z,3.20
2023-05-19T12:03:09.281Z,5.25
2023-05-19T12:05:42.940Z,2.95
2023-05-19T12:08:12.904Z,2.95
2023-05-19T12:10:42.436Z,2.95
2023-05-19T12:13:13.875Z,2.60
2023-05-19T12:15:45.500Z,3.58
2023-05-19T12:18:14.381Z,4.00
2023-05-19T12:20:43.539Z,3.33
2023-05-19T12:23:13.242Z,3.72
2023-05-19T12:25:42.266Z,3.15
2023-05-19T12:28:12.514Z,2.80
2023-05-19T12:30:41.606Z,3.00
2023-05-19T12:33:12.013Z,2.97
2023-05-19T12:35:41.077Z,2.97
2023-05-19T12:38:09.972Z,2.45
2023-05-19T12:40:39.740Z,3.67
2023-05-19T12:43:09.788Z,3.28
2023-05-19T12:45:42.681Z,2.30
2023-05-19T12:48:15.989Z,2.13
2023-05-19T12:50:45.913Z,3.10
2023-05-19T12:53:15.838Z,2.80
2023-05-19T14:47:28.899Z,2.47
2023-05-19T14:49:59.624Z,2.78
2023-05-19T14:52:28.538Z,3.35
2023-05-19T14:54:57.495Z,2.47
2023-05-19T14:57:26.354Z,2.78
2023-05-19T14:59:55.230Z,2.80
2023-05-19T15:02:24.181Z,2.50
2023-05-19T15:04:53.004Z,2.70
2023-05-19T15:07:24.639Z,3.05
2023-05-19T15:09:53.699Z,2.30
2023-05-19T15:12:22.622Z,2.20
2023-05-19T15:14:51.648Z,3.58
2023-05-19T15:17:20.639Z,2.22
2023-05-19T15:19:49.761Z,2.75
2023-05-19T15:22:21.494Z,2.50
2023-05-19T15:24:51.948Z,2.58
2023-05-19T15:27:20.866Z,2.85
2023-05-19T15:29:49.628Z,2.60
2023-05-19T15:32:18.472Z,2.53
2023-05-19T15:34:47.257Z,2.20
2023-05-19T15:37:16.573Z,2.03
2023-05-19T15:39:45.333Z,2.55
2023-05-19T15:42:15.508Z,2.83
2023-05-19T15:44:46.027Z,2.35
2023-05-19T15:47:14.954Z,2.58
2023-05-19T15:49:43.698Z,2.20
2023-05-19T15:52:12.790Z,3.63
2023-05-19T15:54:41.632Z,2.38
2023-05-19T15:57:10.528Z,2.10
2023-05-19T15:59:40.701Z,2.30
2023-05-19T16:02:10.030Z,2.47
2023-05-19T16:04:38.929Z,2.55
2023-05-19T16:07:07.723Z,1.85
2023-05-19T16:09:36.594Z,2.17
2023-05-19T16:12:05.700Z,3.67
2023-05-19T16:14:36.694Z,1.75
2023-05-19T16:17:11.488Z,2.47
2023-05-19T16:19:40.473Z,3.47
2023-05-19T16:22:09.249Z,7.72
2023-05-19T16:24:37.975Z,2.78
2023-05-19T16:27:06.844Z,2.67
2023-05-19T16:29:35.633Z,2.40
2023-05-19T16:32:04.731Z,2.20
2023-05-19T16:34:35.080Z,1.85
2023-05-19T16:37:03.905Z,2.42
2023-05-19T16:39:32.731Z,2.63
2023-05-19T16:42:03.593Z,2.17
2023-05-19T16:44:32.428Z,2.72
2023-05-19T16:47:01.192Z,2.47
2023-05-19T16:49:29.919Z,2.67
2023-05-19T16:52:00.041Z,2.42
2023-05-19T16:54:30.055Z,2.40
2023-05-19T16:56:58.915Z,3.53
2023-05-19T16:59:28.383Z,3.42
2023-05-19T17:01:58.312Z,2.53
2023-05-19T17:04:30.870Z,2.67
2023-05-19T17:07:01.297Z,2.47
2023-05-19T17:09:30.012Z,2.58
2023-05-19T17:12:00.850Z,3.17
2023-05-19T17:14:30.769Z,2.40
2023-05-19T17:17:02.370Z,3.03
2023-05-19T17:19:33.322Z,3.00
2023-05-19T17:22:04.006Z,3.03
2023-05-19T17:24:33.933Z,2.28
2023-05-19T17:27:05.410Z,2.50
2023-05-19T17:29:38.993Z,3.13
2023-05-19T17:32:08.588Z,3.13
2023-05-19T17:34:46.153Z,2.03
2023-05-19T17:37:21.206Z,2.20
2023-05-19T17:39:57.600Z,3.25
2023-05-19T17:43:29.931Z,3.53
2023-05-19T17:46:26.174Z,2.65
2023-05-19T17:51:26.537Z,2.22
2023-05-19T17:52:11.584Z,2.28
2023-05-19T17:54:43.793Z,2.35
2023-05-19T17:57:15.432Z,2.17
2023-05-19T17:59:50.137Z,2.67
2023-05-19T18:02:20.398Z,3.28
2023-05-19T18:04:57.045Z,3.40
2023-05-19T18:11:16.787Z,2.97
2023-05-19T18:14:17.121Z,3.22
2023-05-19T18:17:08.752Z,4.80
2023-05-19T18:19:38.169Z,7.00
2023-05-19T18:22:07.282Z,4.57
2023-05-19T18:24:39.706Z,4.93
2023-05-19T18:27:10.048Z,4.07
2023-05-19T18:29:39.610Z,3.50
2023-05-19T18:32:09.458Z,3.90
2023-05-19T18:34:38.552Z,3.47
2023-05-19T18:37:09.273Z,3.65
2023-05-19T18:39:38.663Z,3.80
2023-05-19T18:42:09.790Z,3.67
2023-05-19T18:45:33.611Z,4.72
2023-05-19T18:57:35.476Z,5.88
2023-05-19T18:57:52.272Z,5.07
2023-05-19T20:06:29.300Z,5.13
2023-05-19T20:08:58.900Z,4.95
2023-05-19T20:11:34.906Z,3.25
2023-05-19T20:17:32.914Z,5.80
2023-05-19T20:20:17.166Z,3.85
2023-05-19T20:27:38.704Z,4.43
2023-05-19T20:30:08.935Z,3.53
2023-05-19T20:32:38.011Z,4.90
2023-05-19T20:35:08.669Z,4.68
2023-05-19T20:37:37.501Z,3.80
2023-05-19T20:40:12.629Z,5.07
2023-05-19T20:42:45.243Z,4.78
2023-05-19T20:45:14.074Z,4.35
2023-05-19T20:47:43.420Z,3.85
2023-05-19T20:50:12.413Z,4.32
2023-05-19T20:52:42.372Z,4.15
2023-05-19T20:55:11.551Z,4.60
2023-05-19T20:57:43.820Z,4.03
2023-05-19T21:00:16.217Z,3.90
2023-05-19T21:02:45.366Z,3.88
2023-05-19T21:05:16.556Z,3.42
2023-05-19T21:07:46.040Z,4.82
2023-05-19T21:10:18.066Z,5.43
2023-05-19T21:12:47.126Z,5.07
2023-05-19T21:15:17.965Z,4.38
2023-05-19T21:17:47.526Z,4.75
2023-05-19T21:20:18.779Z,4.32
2023-05-19T21:22:47.909Z,3.85
2023-05-19T21:25:17.539Z,4.32
2023-05-19T21:27:50.356Z,4.78
2023-05-19T21:30:21.022Z,4.65
2023-05-19T21:32:49.893Z,5.00
2023-05-19T21:35:19.261Z,4.22
2023-05-19T21:37:48.818Z,4.10
2023-05-19T21:40:17.657Z,3.88
2023-05-19T21:42:47.118Z,3.97
2023-05-19T21:45:16.256Z,4.63
2023-05-19T21:47:47.100Z,4.95
2023-05-19T21:50:17.490Z,3.58
2023-05-19T21:52:46.628Z,4.45
2023-05-19T21:55:15.773Z,4.22
2023-05-19T21:57:44.705Z,4.22
2023-05-19T22:00:14.997Z,4.75
2023-05-19T22:02:44.044Z,3.78
2023-05-19T22:05:14.522Z,3.50
2023-05-19T22:07:43.612Z,3.83
2023-05-19T22:10:13.477Z,3.90
2023-05-19T22:12:42.590Z,3.67
2023-05-19T22:15:14.619Z,3.55
2023-05-19T22:17:43.833Z,4.22
2023-05-19T22:20:14.761Z,3.45
2023-05-19T22:22:43.856Z,3.92
2023-05-19T22:25:15.871Z,3.42
2023-05-19T22:27:44.695Z,3.72
2023-05-19T22:30:13.541Z,3.78
2023-05-19T22:32:42.189Z,3.85
2023-05-19T22:35:12.489Z,4.43
2023-05-19T22:37:42.732Z,4.35
2023-05-19T22:40:12.359Z,4.30
2023-05-19T22:42:41.389Z,3.78
2023-05-19T22:45:12.809Z,3.70
2023-05-19T22:47:42.316Z,4.05
2023-05-19T22:50:13.711Z,4.45
2023-05-19T22:52:43.954Z,4.18
2023-05-19T22:55:13.250Z,6.05
2023-05-19T22:57:42.073Z,5.32
2023-05-19T23:00:14.128Z,4.65
2023-05-19T23:02:43.063Z,3.88
2023-05-19T23:05:12.341Z,4.40
2023-05-19T23:07:41.282Z,3.53
2023-05-19T23:10:12.813Z,4.40
2023-05-19T23:12:41.634Z,5.05
2023-05-19T23:15:12.190Z,5.05
2023-05-19T23:17:41.273Z,4.25
2023-05-19T23:20:14.034Z,4.85
2023-05-19T23:22:43.152Z,4.30
2023-05-19T23:25:13.661Z,4.32
2023-05-19T23:27:42.758Z,5.45
2023-05-19T23:30:12.271Z,4.38
2023-05-19T23:32:41.288Z,4.10
2023-05-19T23:35:11.758Z,3.90
2023-05-19T23:37:41.206Z,4.97
2023-05-19T23:40:10.702Z,4.32
2023-05-19T23:42:41.176Z,3.78
2023-05-19T23:45:10.778Z,4.47
2023-05-19T23:47:39.598Z,5.15
2023-05-19T23:50:09.814Z,4.03
2023-05-19T23:52:38.675Z,5.05
2023-05-19T23:55:12.810Z,4.00
2023-05-19T23:57:43.064Z,4.13
